Montmagny, Canada
Current Conditions -  °F | °C
As of 7:00 PM on Monday 22 Dec 2014 (Local Time) from CYQB Reporting Station
Broken Clouds Broken Clouds  
Wind Chill: 14°   Ceiling: 3700
Heat Index: 21°   Visibility: 10mi
Dew Point: 16°   Wind: 6mph
Humidity: 80%   Direction: 10°N
Pressure: 30.38"   Gusts: NA
Location:  46.97°N, 70.55°W
Report Text: CYQB 230000Z 01005KT 10SM BKN037 M06/M09 A3038 RMK SC6 SLP292
Loading
Personal Weather Stations






























Interactive Weather Map New forecast layout! Learn more

10-Day Weather Forecast

Advertisements
Track Severe Weather on mobile